Terminal Aerodrome Forecast
Issued by NWS Wilmington, OH

Current Version | Previous Version | Text Only | Print | Product List | Glossary Off
Versions: 1 2 3 4 5 6 7 8 9 10 11 12 13

000
FTUS41 KILN 240500
TAFILN
TAF
KILN 240530Z 2406/2506 VRB03KT P6SM SCT250
     FM241300 20008KT P6SM BKN250
     FM241700 22014G22KT P6SM SCT025
     FM250000 24010KT P6SM OVC025=

USA.gov is the U.S. government's official web portal to all federal, state and local government web resources and services.